createdAt,value
2018-04-02T00:02:07.589Z,99.90
2018-04-02T00:04:35.135Z,99.90
2018-04-02T00:07:02.660Z,99.90
2018-04-02T00:09:30.209Z,99.90
2018-04-02T00:11:57.759Z,99.90
2018-04-02T00:14:25.287Z,99.90
2018-04-02T00:16:52.824Z,99.90
2018-04-02T00:19:20.353Z,99.90
2018-04-02T00:21:47.891Z,99.90
2018-04-02T00:24:16.173Z,99.90
2018-04-02T00:26:43.714Z,99.90
2018-04-02T00:29:12.005Z,99.90
2018-04-02T00:31:40.312Z,99.90
2018-04-02T00:34:08.509Z,99.90
2018-04-02T00:36:35.446Z,99.90
2018-04-02T00:39:02.982Z,99.90
2018-04-02T00:41:30.528Z,99.90
2018-04-02T00:43:58.810Z,99.90
2018-04-02T00:46:27.117Z,99.90
2018-04-02T00:48:54.639Z,99.90
2018-04-02T00:51:22.946Z,99.90
2018-04-02T00:53:50.470Z,99.90
2018-04-02T00:56:18.078Z,99.90
2018-04-02T00:58:45.598Z,99.90
2018-04-02T01:01:13.143Z,99.90
2018-04-02T01:03:40.669Z,99.90
2018-04-02T01:06:08.225Z,99.90
2018-04-02T01:08:35.750Z,99.90
2018-04-02T01:11:04.033Z,99.90
2018-04-02T01:13:32.336Z,99.90
2018-04-02T01:15:59.858Z,99.90
2018-04-02T01:18:27.403Z,99.90
2018-04-02T01:20:54.926Z,99.90
2018-04-02T01:23:22.466Z,99.90
2018-04-02T01:25:49.992Z,99.90
2018-04-02T01:28:17.548Z,99.90
2018-04-02T01:30:45.071Z,99.90
2018-04-02T01:33:12.634Z,99.90
2018-04-02T01:35:40.161Z,99.90
2018-04-02T01:38:08.475Z,99.90
2018-04-02T01:40:35.993Z,99.90
2018-04-02T01:43:04.304Z,99.90
2018-04-02T01:45:31.827Z,99.90
2018-04-02T01:48:00.130Z,99.90
2018-04-02T01:50:27.652Z,99.90
2018-04-02T01:52:55.966Z,99.90
2018-04-02T01:55:23.500Z,99.90
2018-04-02T01:57:51.018Z,99.90
2018-04-02T02:00:18.558Z,99.90
2018-04-02T02:02:46.087Z,99.90
2018-04-02T02:05:14.405Z,99.90
2018-04-02T02:07:41.921Z,99.90
2018-04-02T02:10:09.462Z,99.90
2018-04-02T02:12:36.992Z,99.90
2018-04-02T02:15:04.538Z,99.90
2018-04-02T02:17:32.062Z,99.90
2018-04-02T02:19:59.606Z,99.90
2018-04-02T02:22:27.130Z,99.90
2018-04-02T02:24:54.676Z,99.90
2018-04-02T02:27:22.195Z,99.90
2018-04-02T02:29:49.734Z,99.90
2018-04-02T02:32:17.256Z,99.90
2018-04-02T02:34:45.667Z,99.90
2018-04-02T02:37:13.196Z,99.90
2018-04-02T02:39:41.512Z,99.90
2018-04-02T02:42:09.040Z,99.90
2018-04-02T02:44:36.600Z,99.90
2018-04-02T02:47:04.122Z,99.90
2018-04-02T02:49:31.647Z,99.90
2018-04-02T02:51:59.191Z,99.90
2018-04-02T02:54:26.714Z,99.90
2018-04-02T02:56:54.260Z,99.90
2018-04-02T02:59:21.889Z,99.90
2018-04-02T03:01:49.425Z,99.90
2018-04-02T03:04:17.710Z,99.90
2018-04-02T03:06:45.253Z,99.90
2018-04-02T03:09:13.543Z,99.90
2018-04-02T03:11:41.091Z,99.90
2018-04-02T03:14:09.383Z,99.90
2018-04-02T03:16:37.691Z,99.90
2018-04-02T03:19:05.214Z,99.90
2018-04-02T03:21:33.524Z,99.90
2018-04-02T03:24:01.051Z,99.90
2018-04-02T03:26:29.359Z,99.90
2018-04-02T03:28:56.897Z,99.90
2018-04-02T03:31:25.210Z,99.90
2018-04-02T03:33:52.729Z,99.90
2018-04-02T03:36:21.048Z,99.90
2018-04-02T03:38:48.586Z,99.90
2018-04-02T03:41:16.166Z,99.90
2018-04-02T03:43:43.708Z,99.90
2018-04-02T03:46:11.229Z,99.90
2018-04-02T03:48:38.769Z,99.90
2018-04-02T03:51:06.300Z,99.90
2018-04-02T03:53:33.872Z,99.90
2018-04-02T03:56:01.404Z,99.90
2018-04-02T03:58:28.949Z,99.90
2018-04-02T04:00:57.245Z,99.90
2018-04-02T04:03:25.558Z,99.90
2018-04-02T04:05:53.134Z,99.90
2018-04-02T04:08:20.674Z,99.90
2018-04-02T04:10:48.199Z,99.90
2018-04-02T04:13:16.518Z,99.90
2018-04-02T04:15:44.072Z,99.90
2018-04-02T04:18:11.594Z,99.90
2018-04-02T04:20:39.901Z,99.90
2018-04-02T04:23:07.477Z,99.90
2018-04-02T04:25:35.034Z,99.90
2018-04-02T04:28:02.608Z,99.90
2018-04-02T04:30:30.153Z,99.90
2018-04-02T04:32:57.673Z,99.90
2018-04-02T04:35:25.981Z,99.90
2018-04-02T04:37:53.509Z,99.90
2018-04-02T04:40:21.080Z,99.90
2018-04-02T04:42:48.683Z,99.90
2018-04-02T04:45:16.228Z,99.90
2018-04-02T04:47:43.754Z,99.90
2018-04-02T04:50:11.307Z,99.90
2018-04-02T04:52:38.830Z,99.90
2018-04-02T04:55:06.374Z,99.90
2018-04-02T04:57:33.898Z,99.90
2018-04-02T05:00:02.213Z,99.90
2018-04-02T05:02:29.737Z,99.90
2018-04-02T05:04:57.354Z,99.90
2018-04-02T05:07:25.897Z,99.90
2018-04-02T05:09:54.181Z,99.90
2018-04-02T05:12:21.736Z,99.90
2018-04-02T05:14:50.029Z,99.90
2018-04-02T05:17:17.570Z,99.90
2018-04-02T05:19:45.893Z,99.90
2018-04-02T05:22:13.452Z,99.90
2018-04-02T05:24:40.976Z,99.90
2018-04-02T05:27:09.281Z,99.90
2018-04-02T05:29:36.851Z,99.90
2018-04-02T05:32:04.416Z,99.90
2018-04-02T05:34:31.937Z,99.90
2018-04-02T05:37:00.257Z,99.90
2018-04-02T05:39:27.793Z,99.90
2018-04-02T05:41:55.333Z,99.90
2018-04-02T05:44:22.857Z,99.90
2018-04-02T05:46:50.412Z,99.90
2018-04-02T05:49:17.938Z,99.90
2018-04-02T05:51:45.487Z,99.90
2018-04-02T05:54:13.783Z,99.90
2018-04-02T05:56:41.336Z,99.90
2018-04-02T05:59:08.862Z,99.90
2018-04-02T06:01:36.390Z,99.90
2018-04-02T06:04:03.932Z,99.90
2018-04-02T06:06:31.455Z,99.90
2018-04-02T06:08:59.765Z,99.90
2018-04-02T06:11:27.294Z,99.90
2018-04-02T06:13:55.607Z,99.90
2018-04-02T06:16:23.135Z,99.90
2018-04-02T06:18:50.742Z,99.90
2018-04-02T06:21:18.310Z,99.90
2018-04-02T06:23:45.853Z,99.90
2018-04-02T06:26:13.373Z,99.90
2018-04-02T06:28:40.986Z,99.90
2018-04-02T06:31:08.510Z,99.90
2018-04-02T06:33:36.825Z,99.90
2018-04-02T06:36:04.345Z,99.90
2018-04-02T06:38:31.887Z,99.90
2018-04-02T06:40:59.409Z,99.90
2018-04-02T06:43:26.922Z,99.90
2018-04-02T06:45:54.461Z,99.90
2018-04-02T06:48:21.997Z,99.90
2018-04-02T06:50:49.554Z,99.90
2018-04-02T06:53:17.070Z,99.90
2018-04-02T06:55:45.394Z,99.90
2018-04-02T06:58:12.913Z,99.90
2018-04-02T07:00:41.230Z,99.90
2018-04-02T07:03:08.757Z,99.90
2018-04-02T07:05:37.061Z,99.90
2018-04-02T07:08:04.608Z,99.90
2018-04-02T07:10:32.152Z,99.90
2018-04-02T07:13:00.437Z,99.90
2018-04-02T07:15:28.746Z,99.90
2018-04-02T07:17:56.264Z,99.90
2018-04-02T07:20:23.802Z,99.90
2018-04-02T07:22:51.322Z,99.90
2018-04-02T07:25:18.893Z,99.90
2018-04-02T07:27:46.412Z,99.90
2018-04-02T07:30:14.737Z,99.90
2018-04-02T07:32:42.295Z,99.90
2018-04-02T07:35:09.854Z,99.90
2018-04-02T07:37:37.414Z,99.90
2018-04-02T07:40:04.974Z,99.90
2018-04-02T07:42:32.519Z,99.90
2018-04-02T07:45:00.046Z,99.90
2018-04-02T07:47:27.591Z,99.90
2018-04-02T07:49:55.878Z,99.90
2018-04-02T07:52:23.421Z,99.90
2018-04-02T07:54:50.938Z,99.90
2018-04-02T07:57:18.477Z,99.90
2018-04-02T07:59:46.773Z,99.90
2018-04-02T08:02:14.350Z,99.90
2018-04-02T08:04:41.877Z,99.90
2018-04-02T08:07:10.182Z,99.90
2018-04-02T08:09:37.746Z,99.90
2018-04-02T08:12:05.289Z,99.90
2018-04-02T08:14:32.808Z,99.90
2018-04-02T08:17:00.346Z,99.90
2018-04-02T08:19:27.864Z,99.90
2018-04-02T08:21:56.187Z,99.80
2018-04-02T08:24:23.711Z,99.90
2018-04-02T08:26:52.039Z,94.20
2018-04-02T08:29:19.564Z,94.10
2018-04-02T08:31:47.224Z,80.30
2018-04-02T08:34:14.806Z,76.70
2018-04-02T08:36:42.355Z,85.70
2018-04-02T08:39:09.895Z,80.10
2018-04-02T08:41:38.178Z,96.70
2018-04-02T08:44:05.727Z,96.80
2018-04-02T08:46:34.011Z,99.90
2018-04-02T08:49:01.550Z,99.90
2018-04-02T08:51:29.840Z,99.90
2018-04-02T08:53:58.145Z,98.50
2018-04-02T08:56:25.676Z,98.80
2018-04-02T08:58:53.977Z,99.90
2018-04-02T09:01:21.502Z,99.90
2018-04-02T09:03:49.036Z,99.90
2018-04-02T09:06:16.553Z,99.90
2018-04-02T09:08:44.138Z,95.40
2018-04-02T09:11:11.698Z,84.40
2018-04-02T09:13:39.217Z,88.00
2018-04-02T09:16:07.535Z,93.20
2018-04-02T09:18:35.055Z,93.20
2018-04-02T09:21:03.352Z,88.50
2018-04-02T09:23:30.877Z,88.60
2018-04-02T09:25:59.177Z,91.10
2018-04-02T09:28:27.466Z,92.60
2018-04-02T09:30:55.002Z,92.60
2018-04-02T09:33:22.521Z,96.70
2018-04-02T09:35:50.056Z,99.00
2018-04-02T09:38:17.574Z,99.90
2018-04-02T09:40:45.108Z,99.90
2018-04-02T09:43:12.637Z,99.90
2018-04-02T09:45:40.180Z,99.90
2018-04-02T09:48:08.486Z,99.90
2018-04-02T09:50:36.033Z,99.90
2018-04-02T09:53:03.550Z,99.90
2018-04-02T09:55:31.176Z,99.90
2018-04-02T09:57:58.734Z,99.90
2018-04-02T10:00:32.139Z,99.90
2018-04-02T10:03:00.131Z,99.90
2018-04-02T10:05:27.649Z,99.90
2018-04-02T10:07:55.197Z,99.90
2018-04-02T10:10:23.496Z,99.90
2018-04-02T10:12:51.062Z,99.90
2018-04-02T10:15:18.586Z,99.90
2018-04-02T10:17:46.903Z,80.20
2018-04-02T10:20:14.413Z,80.20
2018-04-02T10:22:41.973Z,69.80
2018-04-02T10:25:09.485Z,70.90
2018-04-02T10:27:37.025Z,72.80
2018-04-02T10:30:04.547Z,63.80
2018-04-02T10:32:32.087Z,65.40
2018-04-02T10:34:59.618Z,69.00
2018-04-02T10:37:27.161Z,80.80
2018-04-02T10:39:55.455Z,89.40
2018-04-02T10:42:23.045Z,89.70
2018-04-02T10:44:50.541Z,91.70
2018-04-02T10:47:18.058Z,82.50
2018-04-02T10:49:45.603Z,80.10
2018-04-02T10:52:13.120Z,85.60
2018-04-02T10:54:40.732Z,71.70
2018-04-02T10:57:08.253Z,75.40
2018-04-02T10:59:36.589Z,66.50
2018-04-02T11:02:04.126Z,66.30
2018-04-02T11:04:31.661Z,67.20
2018-04-02T11:06:59.254Z,73.50
2018-04-02T11:09:26.790Z,89.40
2018-04-02T11:11:54.317Z,78.20
2018-04-02T11:14:21.860Z,84.60
2018-04-02T11:16:49.373Z,92.00
2018-04-02T11:19:16.908Z,90.60
2018-04-02T11:21:45.197Z,95.10
2018-04-02T11:24:13.497Z,89.40
2018-04-02T11:26:41.073Z,89.40
2018-04-02T11:29:08.617Z,86.30
2018-04-02T11:31:36.131Z,92.60
2018-04-02T11:34:03.670Z,78.30
2018-04-02T11:36:31.181Z,67.50
2018-04-02T11:38:59.590Z,60.00
2018-04-02T11:41:27.103Z,59.90
2018-04-02T11:43:54.626Z,58.00
2018-04-02T11:46:22.176Z,56.20
2018-04-02T11:48:49.694Z,56.70
2018-04-02T11:51:17.993Z,60.80
2018-04-02T11:53:45.509Z,60.60
2018-04-02T11:56:13.041Z,63.00
2018-04-02T11:58:40.561Z,58.80
2018-04-02T12:01:08.866Z,56.40
2018-04-02T12:03:36.381Z,56.40
2018-04-02T12:06:03.918Z,61.80
2018-04-02T12:08:31.437Z,60.50
2018-04-02T12:10:58.965Z,59.00
2018-04-02T12:13:27.995Z,63.20
2018-04-02T12:15:55.538Z,63.00
2018-04-02T12:18:23.825Z,65.00
2018-04-02T12:20:51.426Z,65.00
2018-04-02T12:23:19.665Z,57.50
2018-04-02T12:25:47.245Z,57.50
2018-04-02T12:28:14.761Z,57.40
2018-04-02T12:30:42.370Z,57.30
2018-04-02T12:33:09.944Z,56.70
2018-04-02T12:35:37.477Z,57.70
2018-04-02T12:38:05.057Z,60.10
2018-04-02T12:40:32.594Z,57.40
2018-04-02T12:43:00.141Z,59.40
2018-04-02T12:45:27.738Z,62.10
2018-04-02T12:47:55.299Z,61.60
2018-04-02T12:50:22.808Z,59.90
2018-04-02T12:52:50.426Z,60.00
2018-04-02T12:55:17.934Z,65.00
2018-04-02T12:57:45.542Z,61.30
2018-04-02T13:00:13.052Z,65.10
2018-04-02T13:02:42.089Z,57.60
2018-04-02T13:05:09.663Z,57.60
2018-04-02T13:07:37.194Z,59.00
2018-04-02T13:10:05.472Z,61.30
2018-04-02T13:12:33.873Z,67.60
2018-04-02T13:15:01.392Z,67.70
2018-04-02T13:17:29.004Z,62.90
2018-04-02T13:19:56.526Z,76.40
2018-04-02T13:22:24.831Z,70.00
2018-04-02T13:24:52.349Z,69.90
2018-04-02T13:27:19.962Z,71.00
2018-04-02T13:29:47.482Z,73.10
2018-04-02T13:32:15.760Z,79.20
2018-04-02T13:34:44.053Z,75.10
2018-04-02T13:37:12.334Z,93.20
2018-04-02T13:39:40.644Z,69.40
2018-04-02T13:42:08.157Z,69.40
2018-04-02T13:44:36.474Z,73.90
2018-04-02T13:47:03.985Z,73.10
2018-04-02T13:49:32.317Z,69.90
2018-04-02T13:51:59.831Z,69.20
2018-04-02T13:54:28.361Z,71.40
2018-04-02T13:56:55.877Z,71.10
2018-04-02T13:59:24.829Z,71.30
2018-04-02T14:01:52.380Z,71.50
2018-04-02T14:04:19.917Z,68.80
2018-04-02T14:06:47.425Z,69.80
2018-04-02T14:09:14.958Z,66.60
2018-04-02T14:11:42.478Z,67.90
2018-04-02T14:14:10.779Z,69.10
2018-04-02T14:16:38.299Z,69.00
2018-04-02T14:19:05.841Z,67.00
2018-04-02T14:21:33.366Z,64.40
2018-04-02T14:24:00.885Z,63.90
2018-04-02T14:26:28.425Z,62.60
2018-04-02T14:28:55.942Z,67.60
2018-04-02T14:31:23.473Z,68.50
2018-04-02T14:33:50.990Z,87.80
2018-04-02T14:36:18.521Z,73.10
2018-04-02T14:38:46.034Z,67.50
2018-04-02T14:41:13.581Z,68.20
2018-04-02T14:43:41.102Z,66.90
2018-04-02T14:46:08.641Z,68.20
2018-04-02T14:48:36.149Z,69.80
2018-04-02T14:51:03.711Z,73.50
2018-04-02T14:53:31.238Z,72.40
2018-04-02T14:55:59.537Z,73.20
2018-04-02T14:58:27.045Z,73.10
2018-04-02T15:00:54.581Z,68.30
2018-04-02T15:03:22.121Z,81.60
2018-04-02T15:05:49.653Z,74.60
2018-04-02T15:08:17.962Z,74.60
2018-04-02T15:10:45.480Z,74.60
2018-04-02T15:13:13.799Z,70.80
2018-04-02T15:15:41.305Z,70.80
2018-04-02T15:18:08.888Z,78.80
2018-04-02T15:20:37.202Z,77.50
2018-04-02T15:23:04.766Z,77.50
2018-04-02T15:25:32.290Z,70.30
2018-04-02T15:28:00.594Z,76.80
2018-04-02T15:30:28.106Z,76.30
2018-04-02T15:32:55.669Z,77.60
2018-04-02T15:35:23.190Z,70.00
2018-04-02T15:37:50.721Z,70.80
2018-04-02T15:40:18.251Z,73.30
2018-04-02T15:42:46.702Z,71.40
2018-04-02T15:45:14.215Z,69.40
2018-04-02T15:47:42.513Z,74.10
2018-04-02T15:50:10.052Z,73.90
2018-04-02T15:52:38.353Z,77.50
2018-04-02T15:55:05.879Z,77.50
2018-04-02T15:57:33.396Z,70.20
2018-04-02T16:00:00.948Z,73.30
2018-04-02T16:02:28.613Z,77.10
2018-04-02T16:04:56.150Z,70.00
2018-04-02T16:07:24.425Z,70.40
2018-04-02T16:09:52.829Z,72.10
2018-04-02T16:12:20.341Z,72.10
2018-04-02T16:14:47.882Z,75.00
2018-04-02T16:17:15.393Z,71.70
2018-04-02T16:19:42.927Z,71.60
2018-04-02T16:22:10.441Z,73.80
2018-04-02T16:24:38.001Z,75.10
2018-04-02T16:27:05.551Z,83.70
2018-04-02T16:29:33.122Z,84.10
2018-04-02T16:32:00.653Z,80.00
2018-04-02T16:34:28.960Z,80.50
2018-04-02T16:36:56.476Z,80.50
2018-04-02T16:39:24.014Z,86.20
2018-04-02T16:41:51.644Z,88.20
2018-04-02T16:44:19.178Z,90.00
2018-04-02T16:46:47.453Z,90.90
2018-04-02T16:49:15.862Z,97.30
2018-04-02T16:51:43.378Z,97.50
2018-04-02T16:54:10.893Z,99.90
2018-04-02T16:56:38.431Z,99.90
2018-04-02T16:59:05.950Z,99.90
2018-04-02T17:01:34.985Z,99.90
2018-04-02T17:04:02.505Z,99.90
2018-04-02T17:09:10.178Z,99.90
2018-04-02T17:11:37.716Z,99.90
2018-04-02T17:14:05.235Z,99.90
2018-04-02T17:16:32.774Z,99.90
2018-04-02T17:19:00.302Z,99.90
2018-04-02T17:21:27.845Z,99.90
2018-04-02T17:23:56.132Z,99.90
2018-04-02T17:26:24.533Z,99.90
2018-04-02T17:28:52.097Z,99.90
2018-04-02T17:31:19.635Z,99.90
2018-04-02T17:33:47.221Z,99.90
2018-04-02T17:36:14.759Z,99.90
2018-04-02T17:38:42.299Z,99.90
2018-04-02T17:41:10.615Z,99.90
2018-04-02T17:43:38.129Z,99.90
2018-04-02T17:46:05.734Z,99.90
2018-04-02T17:48:33.259Z,99.90
2018-04-02T17:51:01.566Z,99.90
2018-04-02T17:53:29.082Z,99.90
2018-04-02T17:55:58.179Z,99.90
2018-04-02T17:58:25.657Z,99.90
2018-04-02T18:00:53.934Z,99.90
2018-04-02T18:03:22.230Z,99.90
2018-04-02T18:05:49.737Z,99.90
2018-04-02T18:08:17.271Z,99.90
2018-04-02T18:10:44.784Z,99.90
2018-04-02T18:13:12.398Z,99.90
2018-04-02T18:15:39.920Z,99.90
2018-04-02T18:18:07.455Z,99.90
2018-04-02T18:20:34.965Z,99.90
2018-04-02T18:23:02.489Z,99.90
2018-04-02T18:25:31.505Z,99.90
2018-04-02T18:27:59.813Z,99.90
2018-04-02T18:30:27.325Z,99.90
2018-04-02T18:32:54.929Z,99.90
2018-04-02T18:35:22.441Z,99.90
2018-04-02T18:37:50.053Z,99.90
2018-04-02T18:40:17.622Z,99.90
2018-04-02T18:42:45.152Z,99.90
2018-04-02T18:45:13.464Z,99.90
2018-04-02T18:47:41.047Z,99.90
2018-04-02T18:50:08.526Z,99.90
2018-04-02T18:52:36.034Z,99.90
2018-04-02T18:55:03.566Z,99.90
2018-04-02T18:57:31.838Z,99.90
2018-04-02T19:00:00.144Z,99.90
2018-04-02T19:02:27.657Z,99.90
2018-04-02T19:04:55.283Z,99.90
2018-04-02T19:07:22.846Z,99.90
2018-04-02T19:09:50.406Z,99.90
2018-04-02T19:12:17.914Z,99.90
2018-04-02T19:14:46.215Z,99.90
2018-04-02T19:17:14.489Z,99.90
2018-04-02T19:19:42.807Z,99.90
2018-04-02T19:22:10.314Z,99.90
2018-04-02T19:24:37.938Z,99.90
2018-04-02T19:27:05.446Z,99.90
2018-04-02T19:29:33.053Z,99.90
2018-04-02T19:32:00.610Z,99.90
2018-04-02T19:34:28.122Z,99.90
2018-04-02T19:36:55.660Z,99.90
2018-04-02T19:39:23.165Z,99.90
2018-04-02T19:41:51.465Z,99.90
2018-04-02T19:44:19.033Z,99.90
2018-04-02T19:46:46.594Z,99.90
2018-04-02T19:49:14.110Z,99.90
2018-04-02T19:51:41.642Z,99.90
2018-04-02T19:54:09.149Z,99.90
2018-04-02T19:56:37.446Z,99.90
2018-04-02T19:59:04.993Z,99.90
2018-04-02T20:01:33.299Z,99.90
2018-04-02T20:04:00.805Z,99.90
2018-04-02T20:06:28.337Z,99.90
2018-04-02T20:08:55.849Z,99.90
2018-04-02T20:11:24.163Z,99.90
2018-04-02T20:13:51.697Z,99.90
2018-04-02T20:16:19.988Z,99.90
2018-04-02T20:18:47.494Z,99.90
2018-04-02T20:21:15.117Z,99.90
2018-04-02T20:23:42.630Z,99.90
2018-04-02T20:26:10.182Z,99.90
2018-04-02T20:28:37.698Z,99.90
2018-04-02T20:31:05.210Z,99.90
2018-04-02T20:33:32.738Z,99.90
2018-04-02T20:36:00.257Z,99.90
2018-04-02T20:38:27.798Z,99.90
2018-04-02T20:40:55.305Z,99.90
2018-04-02T20:43:22.830Z,99.90
2018-04-02T20:45:51.109Z,99.90
2018-04-02T20:48:19.401Z,99.90
2018-04-02T20:50:46.922Z,99.90
2018-04-02T20:53:14.451Z,99.90
2018-04-02T20:55:41.966Z,99.90
2018-04-02T20:58:10.272Z,99.90
2018-04-02T21:00:37.788Z,99.90
2018-04-02T21:03:05.320Z,99.90
2018-04-02T21:05:32.865Z,99.90
2018-04-02T21:08:00.399Z,99.90
2018-04-02T21:10:28.709Z,99.90
2018-04-02T21:12:56.241Z,99.90
2018-04-02T21:15:24.513Z,99.90
2018-04-02T21:17:52.801Z,99.90
2018-04-02T21:20:20.317Z,99.90
2018-04-02T21:22:47.866Z,99.90
2018-04-02T21:25:15.394Z,99.90
2018-04-02T21:27:42.910Z,99.90
2018-04-02T21:30:11.214Z,99.90
2018-04-02T21:32:38.743Z,99.90
2018-04-02T21:35:06.278Z,99.90
2018-04-02T21:37:33.806Z,99.90
2018-04-02T21:40:01.386Z,99.90
2018-04-02T21:42:28.900Z,99.90
2018-04-02T21:44:57.211Z,99.90
2018-04-02T21:47:24.723Z,99.90
2018-04-02T21:49:52.345Z,99.90
2018-04-02T21:52:19.869Z,99.90
2018-04-02T21:54:48.169Z,99.90
2018-04-02T21:57:15.686Z,99.90
2018-04-02T21:59:43.217Z,99.90
2018-04-02T22:02:10.735Z,99.90
2018-04-02T22:04:39.031Z,99.90
2018-04-02T22:07:06.541Z,99.90
2018-04-02T22:09:34.074Z,99.90
2018-04-02T22:12:01.580Z,99.90
2018-04-02T22:14:29.886Z,99.90
2018-04-02T22:16:57.505Z,99.90
2018-04-02T22:19:25.013Z,99.90
2018-04-02T22:21:52.533Z,99.90
2018-04-02T22:24:20.046Z,99.90
2018-04-02T22:26:47.573Z,99.90
2018-04-02T22:29:15.881Z,99.90
2018-04-02T22:31:43.413Z,99.90
2018-04-02T22:34:11.695Z,99.90
2018-04-02T22:36:39.994Z,99.90
2018-04-02T22:39:07.527Z,99.90
2018-04-02T22:41:35.824Z,99.90
2018-04-02T22:44:03.402Z,99.90
2018-04-02T22:46:30.946Z,99.90
2018-04-02T22:48:58.461Z,99.90
2018-04-02T22:51:25.997Z,99.90
2018-04-02T22:53:53.511Z,99.90
2018-04-02T22:56:21.809Z,99.90
2018-04-02T22:58:49.330Z,99.90
2018-04-02T23:01:16.862Z,99.90
2018-04-02T23:03:44.367Z,99.90
2018-04-02T23:06:12.670Z,99.90
2018-04-02T23:08:40.256Z,99.90
2018-04-02T23:11:07.805Z,99.90
2018-04-02T23:13:35.337Z,99.90
2018-04-02T23:16:03.614Z,99.90
2018-04-02T23:18:31.930Z,99.90
2018-04-02T23:20:59.439Z,99.90
2018-04-02T23:23:27.760Z,99.90
2018-04-02T23:25:55.276Z,99.90
2018-04-02T23:28:22.810Z,99.90
2018-04-02T23:30:50.341Z,99.90
2018-04-02T23:33:17.877Z,99.90
2018-04-02T23:35:46.180Z,99.90
2018-04-02T23:38:13.747Z,99.90
2018-04-02T23:40:41.267Z,99.90
2018-04-02T23:43:09.574Z,99.90
2018-04-02T23:45:37.094Z,99.90
2018-04-02T23:48:04.701Z,99.90
2018-04-02T23:50:32.217Z,99.90
2018-04-02T23:53:00.514Z,99.90
2018-04-02T23:55:28.830Z,99.90
2018-04-02T23:57:56.391Z,99.90
